KGFK

Grand Forks International Airport

Grand Forks, North Dakota, USA
METAR KGFK 212253Z 00000KT 10SM SCT055 SCT100 BKN150 30/16 A2988 RMK AO2 SLP115 T03000161
Observed Flight Rules
Jun-21 @ 22:53 UTC (an hour ago) Visual Flight Rules
Visibility Clouds
10 miles
  • Scattered at 5,500' AGL
  • Scattered at 10,000' AGL
  • Broken at 15,000' AGL
Temperatures Readings
Current 30°C / 86°F
Dewpoint 16°C / 61°F
Humidity 43%
Altimeter 29.88" Hg
Pressure 1011.5 hPa
Elevation 258
METAR KGFK 212253Z 00000KT 10SM SCT055 SCT100 BKN150 30/16 A2988 RMK AO2 SLP115 T03000161
Observed Flight Rules
Jun-21 @ 22:53 UTC
(an hour ago)
VFR
Clouds
  • Scattered at 5,500' AGL
  • Scattered at 10,000' AGL
  • Broken at 15,000' AGL
Temperature Dewpoint
30°C / 86°F 16°C / 61°F
Humidity Altimeter Pressure
43% 29.88" Hg 1011.5 hPa